createdAt,value
2022-08-22T00:00:13.863Z,21.02
2022-08-22T00:02:47.779Z,25.31
2022-08-22T00:03:00.888Z,22.33
2022-08-22T00:03:15.454Z,21.02
2022-08-22T00:05:34.315Z,21.03
2022-08-22T00:08:08.460Z,21.03
2022-08-22T00:10:44.600Z,21.04
2022-08-22T00:13:26.408Z,21.06
2022-08-22T00:16:01.718Z,21.07
2022-08-22T00:21:04.476Z,21.07
2022-08-22T00:26:22.068Z,21.08
2022-08-22T00:28:51.380Z,21.08
2022-08-22T00:31:25.615Z,21.08
2022-08-22T00:34:00.672Z,21.06
2022-08-22T00:36:33.789Z,21.04
2022-08-22T00:39:07.432Z,21.00
2022-08-22T00:41:46.123Z,20.96
2022-08-22T00:44:32.392Z,20.94
2022-08-22T00:47:07.341Z,20.89
2022-08-22T00:49:44.219Z,20.92
2022-08-22T00:52:19.673Z,20.93
2022-08-22T00:55:02.066Z,20.91
2022-08-22T00:57:36.878Z,20.84
2022-08-22T01:00:13.151Z,20.85
2022-08-22T01:02:52.684Z,20.86
2022-08-22T01:05:27.720Z,20.87
2022-08-22T01:08:22.141Z,20.86
2022-08-22T01:11:11.377Z,20.80
2022-08-22T01:13:44.870Z,20.77
2022-08-22T01:19:18.373Z,20.77
2022-08-22T01:22:24.247Z,20.78
2022-08-22T01:25:26.037Z,20.77
2022-08-22T01:28:12.607Z,20.75
2022-08-22T01:30:51.261Z,20.70
2022-08-22T01:33:33.809Z,20.64
2022-08-22T01:36:16.059Z,20.63
2022-08-22T01:38:58.893Z,20.65
2022-08-22T01:41:41.361Z,20.68
2022-08-22T01:44:24.331Z,20.68
2022-08-22T01:46:55.638Z,20.68
2022-08-22T01:49:25.435Z,20.66
2022-08-22T01:51:56.523Z,20.67
2022-08-22T01:54:38.413Z,20.66
2022-08-22T01:57:07.751Z,20.65
2022-08-22T01:59:42.211Z,20.64
2022-08-22T02:02:25.279Z,20.60
2022-08-22T02:04:56.211Z,20.53
2022-08-22T02:07:32.303Z,20.48
2022-08-22T02:10:07.689Z,20.48
2022-08-22T02:12:38.615Z,20.50
2022-08-22T02:15:13.542Z,20.49
2022-08-22T02:17:56.778Z,20.45
2022-08-22T02:20:32.419Z,20.40
2022-08-22T02:23:04.172Z,20.37
2022-08-22T02:25:33.449Z,20.38
2022-08-22T02:28:06.974Z,20.36
2022-08-22T02:30:46.169Z,20.35
2022-08-22T02:33:16.732Z,20.33
2022-08-22T02:35:50.466Z,20.28
2022-08-22T02:38:41.507Z,20.27
2022-08-22T02:41:19.651Z,20.28
2022-08-22T02:44:04.015Z,20.24
2022-08-22T02:46:41.060Z,20.23
2022-08-22T02:49:13.203Z,20.18
2022-08-22T02:51:46.346Z,20.16
2022-08-22T02:54:18.903Z,20.12
2022-08-22T02:56:52.517Z,20.07
2022-08-22T02:59:30.665Z,20.01
2022-08-22T03:01:58.335Z,19.96
2022-08-22T03:04:40.773Z,19.94
2022-08-22T03:07:11.658Z,19.89
2022-08-22T03:09:41.998Z,19.89
2022-08-22T03:12:15.181Z,19.84
2022-08-22T03:14:45.789Z,19.81
2022-08-22T03:20:01.370Z,19.70
2022-08-22T03:22:34.575Z,19.64
2022-08-22T03:25:07.444Z,19.60
2022-08-22T03:27:40.068Z,19.56
2022-08-22T03:30:11.242Z,19.46
2022-08-22T03:32:49.151Z,19.43
2022-08-22T03:35:31.797Z,19.34
2022-08-22T03:38:12.178Z,19.32
2022-08-22T03:40:47.468Z,19.25
2022-08-22T03:43:29.994Z,19.19
2022-08-22T03:46:12.475Z,19.14
2022-08-22T03:48:53.461Z,19.13
2022-08-22T03:51:27.361Z,19.13
2022-08-22T03:54:06.271Z,19.08
2022-08-22T03:57:02.580Z,19.05
2022-08-22T03:59:58.831Z,19.01
2022-08-22T04:02:52.563Z,19.00
2022-08-22T04:05:30.604Z,19.01
2022-08-22T04:08:26.283Z,19.01
2022-08-22T04:11:17.970Z,18.99
2022-08-22T04:13:59.210Z,18.95
2022-08-22T04:16:54.169Z,18.92
2022-08-22T04:22:14.152Z,18.89
2022-08-22T04:24:52.384Z,18.89
2022-08-22T04:27:30.373Z,18.87
2022-08-22T04:30:01.097Z,18.85
2022-08-22T04:32:33.731Z,18.85
2022-08-22T04:35:04.741Z,18.84
2022-08-22T04:37:46.298Z,18.82
2022-08-22T04:40:18.155Z,18.77
2022-08-22T04:42:48.051Z,18.77
2022-08-22T04:45:17.811Z,18.73
2022-08-22T04:47:55.534Z,18.69
2022-08-22T04:50:25.242Z,18.69
2022-08-22T04:52:59.602Z,18.69
2022-08-22T04:55:32.812Z,18.67
2022-08-22T04:58:06.570Z,18.69
2022-08-22T05:00:38.772Z,18.69
2022-08-22T05:03:12.141Z,18.71
2022-08-22T05:05:52.850Z,18.72
2022-08-22T05:08:23.299Z,18.72
2022-08-22T05:10:51.971Z,18.70
2022-08-22T05:13:22.717Z,18.70
2022-08-22T05:15:52.724Z,18.75
2022-08-22T05:18:29.468Z,18.78
2022-08-22T05:20:59.828Z,18.75
2022-08-22T05:23:29.815Z,18.73
2022-08-22T05:25:59.838Z,18.74
2022-08-22T05:28:36.688Z,18.74
2022-08-22T05:31:06.563Z,18.74
2022-08-22T05:33:39.108Z,18.81
2022-08-22T05:36:09.268Z,18.89
2022-08-22T05:38:48.517Z,18.95
2022-08-22T05:41:19.483Z,19.03
2022-08-22T05:43:49.229Z,19.06
2022-08-22T05:46:20.164Z,19.12
2022-08-22T05:49:06.829Z,19.18
2022-08-22T05:51:40.239Z,19.26
2022-08-22T05:54:12.277Z,19.32
2022-08-22T05:56:42.415Z,19.37
2022-08-22T05:59:18.323Z,19.43
2022-08-22T06:04:50.070Z,19.52
2022-08-22T06:07:19.325Z,19.58
2022-08-22T06:10:09.765Z,19.58
2022-08-22T06:12:39.396Z,19.66
2022-08-22T06:15:20.810Z,19.72
2022-08-22T06:17:50.556Z,19.74
2022-08-22T06:20:22.572Z,19.81
2022-08-22T06:22:54.052Z,19.83
2022-08-22T06:25:24.049Z,19.92
2022-08-22T06:27:52.277Z,19.95
2022-08-22T06:30:20.344Z,20.04
2022-08-22T06:32:59.126Z,20.12
2022-08-22T06:35:51.670Z,20.16
2022-08-22T06:38:20.331Z,20.26
2022-08-22T06:40:48.246Z,20.30
2022-08-22T06:43:16.240Z,20.34
2022-08-22T06:45:44.198Z,20.41
2022-08-22T06:48:14.290Z,20.46
2022-08-22T06:53:47.883Z,20.58
2022-08-22T06:56:20.287Z,20.67
2022-08-22T06:58:50.210Z,20.74
2022-08-22T07:01:21.045Z,20.83
2022-08-22T07:03:52.657Z,20.93
2022-08-22T07:06:29.789Z,21.00
2022-08-22T07:08:59.348Z,21.05
2022-08-22T07:11:35.638Z,21.17
2022-08-22T07:14:05.492Z,21.25
2022-08-22T07:16:34.499Z,21.36
2022-08-22T07:19:02.575Z,21.43
2022-08-22T07:24:17.025Z,21.56
2022-08-22T07:27:05.849Z,21.63
2022-08-22T07:29:36.135Z,21.69
2022-08-22T07:32:11.372Z,21.77
2022-08-22T07:34:44.695Z,21.84
2022-08-22T07:37:15.710Z,21.90
2022-08-22T07:39:50.371Z,21.95
2022-08-22T07:42:19.584Z,21.97
2022-08-22T07:44:58.365Z,22.02
2022-08-22T07:47:28.948Z,22.11
2022-08-22T07:49:58.618Z,22.24
2022-08-22T07:52:27.596Z,22.34
2022-08-22T07:54:58.293Z,22.45
2022-08-22T07:57:30.578Z,22.48
2022-08-22T08:00:01.292Z,22.65
2022-08-22T08:02:29.651Z,22.89
2022-08-22T08:04:58.703Z,23.14
2022-08-22T08:07:27.654Z,23.44
2022-08-22T08:09:59.551Z,23.62
2022-08-22T08:12:30.325Z,23.85
2022-08-22T08:14:58.743Z,24.02
2022-08-22T08:17:32.474Z,24.15
2022-08-22T08:20:04.192Z,24.13
2022-08-22T08:22:32.467Z,24.27
2022-08-22T08:28:02.544Z,24.73
2022-08-22T08:30:40.997Z,25.01
2022-08-22T08:33:24.803Z,25.29
2022-08-22T08:36:02.532Z,25.64
2022-08-22T08:38:47.886Z,25.91
2022-08-22T08:41:39.309Z,26.26
2022-08-22T08:44:22.651Z,26.52
2022-08-22T08:47:10.173Z,26.75
2022-08-22T08:49:50.514Z,27.01
2022-08-22T08:52:26.713Z,27.32
2022-08-22T08:55:02.337Z,27.45
2022-08-22T08:57:53.624Z,27.61
2022-08-22T09:00:23.252Z,27.71
2022-08-22T09:03:08.246Z,27.75
2022-08-22T09:05:50.849Z,27.83
2022-08-22T09:08:40.575Z,28.05
2022-08-22T09:11:31.053Z,28.32
2022-08-22T09:14:11.805Z,28.50
2022-08-22T09:22:50.520Z,29.10
2022-08-22T09:25:38.592Z,29.25
2022-08-22T09:28:14.996Z,29.48
2022-08-22T09:30:54.161Z,29.58
2022-08-22T09:36:12.211Z,29.68
2022-08-22T09:38:50.170Z,29.70
2022-08-22T09:41:32.248Z,29.84
2022-08-22T09:44:06.488Z,29.81
2022-08-22T09:46:39.763Z,29.83
2022-08-22T09:49:16.487Z,29.85
2022-08-22T09:54:34.118Z,29.92
2022-08-22T09:57:17.315Z,29.95
2022-08-22T09:59:51.786Z,30.03
2022-08-22T10:02:28.875Z,30.13
2022-08-22T10:05:00.536Z,30.41
2022-08-22T10:07:45.137Z,30.64
2022-08-22T10:10:28.752Z,30.78
2022-08-22T10:13:15.187Z,31.02
2022-08-22T10:15:45.836Z,31.28
2022-08-22T10:18:23.758Z,31.35
2022-08-22T10:21:03.541Z,31.44
2022-08-22T10:23:36.725Z,31.56
2022-08-22T10:28:46.129Z,32.01
2022-08-22T10:31:24.857Z,32.19
2022-08-22T10:34:11.144Z,32.31
2022-08-22T10:36:45.981Z,32.41
2022-08-22T10:39:17.943Z,32.42
2022-08-22T10:42:09.757Z,32.52
2022-08-22T10:44:49.261Z,32.65
2022-08-22T10:47:22.240Z,32.79
2022-08-22T10:49:53.388Z,32.81
2022-08-22T10:52:24.747Z,32.89
2022-08-22T10:54:53.348Z,33.02
2022-08-22T10:57:34.008Z,33.10
2022-08-22T11:00:05.556Z,33.14
2022-08-22T11:02:45.746Z,33.10
2022-08-22T11:05:28.400Z,33.20
2022-08-22T11:08:06.371Z,33.34
2022-08-22T11:10:40.804Z,33.48
2022-08-22T11:13:27.310Z,33.44
2022-08-22T11:16:01.179Z,33.57
2022-08-22T11:18:36.528Z,33.62
2022-08-22T11:21:08.415Z,33.69
2022-08-22T11:23:46.593Z,33.79
2022-08-22T11:26:30.120Z,33.74
2022-08-22T11:29:20.862Z,33.82
2022-08-22T11:32:16.566Z,33.86
2022-08-22T11:34:52.695Z,33.99
2022-08-22T11:37:23.987Z,34.08
2022-08-22T11:40:19.325Z,34.21
2022-08-22T11:43:05.453Z,34.38
2022-08-22T11:45:38.191Z,34.49
2022-08-22T11:48:10.012Z,34.53
2022-08-22T11:50:42.052Z,34.67
2022-08-22T11:53:22.729Z,34.64
2022-08-22T11:55:56.918Z,34.78
2022-08-22T11:58:29.213Z,34.86
2022-08-22T12:01:01.495Z,34.99
2022-08-22T12:03:42.030Z,35.04
2022-08-22T12:06:31.813Z,35.11
2022-08-22T12:09:31.814Z,35.15
2022-08-22T12:12:07.583Z,35.17
2022-08-22T12:14:42.854Z,35.32
2022-08-22T12:17:26.307Z,35.24
2022-08-22T12:23:23.269Z,35.10
2022-08-22T12:28:44.911Z,35.15
2022-08-22T12:31:15.984Z,35.02
2022-08-22T12:37:05.680Z,34.94
2022-08-22T12:39:54.949Z,34.79
2022-08-22T12:42:58.412Z,34.65
2022-08-22T12:45:33.588Z,34.61
2022-08-22T12:48:09.972Z,34.71
2022-08-22T12:50:59.754Z,34.69
2022-08-22T12:53:40.844Z,34.76
2022-08-22T12:56:17.637Z,34.78
2022-08-22T12:59:01.248Z,34.91
2022-08-22T13:01:35.096Z,34.97
2022-08-22T13:04:08.250Z,35.10
2022-08-22T13:07:03.137Z,35.24
2022-08-22T13:09:47.809Z,35.33
2022-08-22T13:12:19.883Z,35.45
2022-08-22T13:14:48.908Z,35.53
2022-08-22T13:17:24.421Z,35.56
2022-08-22T13:20:00.186Z,35.43
2022-08-22T13:22:29.403Z,35.42
2022-08-22T13:25:05.335Z,35.44
2022-08-22T13:27:34.947Z,35.37
2022-08-22T13:30:06.392Z,35.43
2022-08-22T13:32:36.825Z,35.42
2022-08-22T13:35:06.845Z,35.52
2022-08-22T13:37:37.649Z,35.48
2022-08-22T13:40:09.752Z,35.56
2022-08-22T13:42:40.620Z,35.47
2022-08-22T13:45:13.090Z,35.49
2022-08-22T13:47:49.574Z,35.51
2022-08-22T13:50:19.780Z,35.49
2022-08-22T13:52:59.835Z,35.40
2022-08-22T13:55:44.012Z,35.47
2022-08-22T13:58:24.955Z,35.43
2022-08-22T14:01:07.500Z,35.27
2022-08-22T14:03:39.636Z,34.85
2022-08-22T14:06:32.676Z,34.83
2022-08-22T14:09:11.886Z,34.75
2022-08-22T14:11:44.579Z,34.66
2022-08-22T14:14:13.635Z,34.66
2022-08-22T14:16:47.438Z,34.78
2022-08-22T14:19:23.962Z,34.75
2022-08-22T14:22:05.015Z,34.83
2022-08-22T14:24:34.269Z,35.01
2022-08-22T14:27:16.332Z,35.09
2022-08-22T14:29:45.827Z,35.24
2022-08-22T14:32:35.365Z,35.28
2022-08-22T14:35:21.438Z,35.18
2022-08-22T14:37:53.171Z,35.20
2022-08-22T14:40:25.381Z,35.16
2022-08-22T14:42:56.670Z,35.17
2022-08-22T14:45:37.613Z,35.17
2022-08-22T14:48:29.841Z,35.23
2022-08-22T14:50:59.752Z,35.22
2022-08-22T14:53:28.679Z,35.24
2022-08-22T14:55:59.454Z,35.18
2022-08-22T14:58:29.617Z,35.16
2022-08-22T15:00:58.007Z,35.11
2022-08-22T15:03:27.389Z,35.01
2022-08-22T15:05:57.309Z,35.08
2022-08-22T15:08:31.827Z,34.95
2022-08-22T15:11:23.855Z,34.96
2022-08-22T15:14:01.172Z,34.88
2022-08-22T15:16:33.761Z,34.86
2022-08-22T15:19:02.680Z,34.72
2022-08-22T15:24:17.200Z,34.54
2022-08-22T15:29:36.171Z,34.45
2022-08-22T15:32:05.363Z,34.38
2022-08-22T15:34:37.896Z,34.25
2022-08-22T15:37:29.711Z,34.16
2022-08-22T15:40:11.631Z,34.04
2022-08-22T15:42:52.507Z,33.82
2022-08-22T15:45:33.888Z,33.66
2022-08-22T15:48:05.529Z,33.47
2022-08-22T15:50:38.882Z,33.37
2022-08-22T15:56:23.587Z,33.01
2022-08-22T15:59:15.128Z,32.93
2022-08-22T16:01:51.950Z,32.84
2022-08-22T16:04:33.718Z,32.74
2022-08-22T16:07:05.410Z,32.69
2022-08-22T16:09:44.270Z,32.55
2022-08-22T16:12:32.002Z,32.47
2022-08-22T16:15:01.925Z,32.38
2022-08-22T16:17:53.460Z,32.23
2022-08-22T16:20:56.535Z,32.15
2022-08-22T16:23:24.481Z,32.07
2022-08-22T16:32:01.353Z,31.81
2022-08-22T16:34:42.266Z,31.74
2022-08-22T16:40:28.914Z,31.48
2022-08-22T16:43:21.792Z,31.39
2022-08-22T16:45:55.180Z,31.31
2022-08-22T16:48:28.506Z,31.26
2022-08-22T16:51:21.259Z,31.20
2022-08-22T16:54:09.851Z,31.09
2022-08-22T16:57:05.206Z,31.02
2022-08-22T16:59:44.258Z,30.94
2022-08-22T17:02:25.626Z,30.89
2022-08-22T17:05:25.444Z,30.78
2022-08-22T17:08:14.315Z,30.65
2022-08-22T17:10:53.708Z,30.59
2022-08-22T17:13:32.848Z,30.51
2022-08-22T17:16:24.445Z,30.49
2022-08-22T17:19:09.170Z,30.44
2022-08-22T17:21:52.085Z,30.41
2022-08-22T17:24:34.385Z,30.36
2022-08-22T17:27:16.164Z,30.29
2022-08-22T17:30:05.260Z,30.22
2022-08-22T17:32:44.753Z,30.21
2022-08-22T17:37:49.293Z,30.14
2022-08-22T17:40:39.406Z,30.10
2022-08-22T17:46:05.439Z,29.95
2022-08-22T17:48:48.121Z,29.88
2022-08-22T17:53:52.171Z,29.77
2022-08-22T17:56:25.524Z,29.69
2022-08-22T17:59:01.497Z,29.59
2022-08-22T18:01:48.733Z,29.51
2022-08-22T18:04:26.042Z,29.39
2022-08-22T18:07:01.300Z,29.29
2022-08-22T18:09:50.667Z,29.19
2022-08-22T18:12:24.305Z,29.10
2022-08-22T18:14:58.489Z,29.03
2022-08-22T18:17:51.907Z,28.93
2022-08-22T18:20:26.142Z,28.85
2022-08-22T18:22:57.830Z,28.78
2022-08-22T18:25:43.922Z,28.70
2022-08-22T18:28:22.150Z,28.62
2022-08-22T18:30:57.477Z,28.56
2022-08-22T18:33:33.447Z,28.51
2022-08-22T18:36:08.984Z,28.43
2022-08-22T18:38:53.288Z,28.33
2022-08-22T18:41:32.964Z,28.21
2022-08-22T18:44:01.620Z,28.12
2022-08-22T18:46:47.867Z,28.06
2022-08-22T18:49:43.359Z,27.95
2022-08-22T18:52:19.671Z,27.86
2022-08-22T18:58:21.023Z,27.68
2022-08-22T19:01:18.567Z,27.57
2022-08-22T19:04:05.342Z,27.47
2022-08-22T19:06:55.107Z,27.34
2022-08-22T19:09:52.492Z,27.21
2022-08-22T19:12:35.581Z,27.12
2022-08-22T19:15:30.109Z,27.02
2022-08-22T19:18:37.695Z,26.99
2022-08-22T19:24:46.482Z,26.86
2022-08-22T19:27:31.098Z,26.74
2022-08-22T19:30:06.346Z,26.59
2022-08-22T19:32:59.125Z,26.50
2022-08-22T19:35:31.846Z,26.35
2022-08-22T19:38:02.582Z,26.21
2022-08-22T19:40:55.831Z,26.09
2022-08-22T19:43:38.260Z,25.95
2022-08-22T19:46:09.464Z,25.86
2022-08-22T19:48:46.811Z,25.71
2022-08-22T19:54:16.255Z,25.57
2022-08-22T19:57:11.482Z,25.50
2022-08-22T19:59:51.068Z,25.41
2022-08-22T20:02:32.011Z,25.35
2022-08-22T20:05:12.988Z,25.29
2022-08-22T20:08:10.691Z,25.20
2022-08-22T20:10:51.697Z,25.09
2022-08-22T20:13:23.802Z,24.99
2022-08-22T20:16:05.350Z,24.91
2022-08-22T20:19:18.098Z,24.82
2022-08-22T20:25:06.205Z,24.63
2022-08-22T20:27:47.004Z,24.48
2022-08-22T20:30:19.686Z,24.40
2022-08-22T20:32:55.879Z,24.28
2022-08-22T20:35:27.421Z,24.19
2022-08-22T20:38:15.678Z,24.07
2022-08-22T20:41:03.196Z,23.97
2022-08-22T20:43:43.923Z,23.93
2022-08-22T20:46:26.317Z,23.86
2022-08-22T20:48:55.232Z,23.81
2022-08-22T20:51:26.363Z,23.81
2022-08-22T20:53:57.034Z,23.78
2022-08-22T20:57:04.508Z,23.77
2022-08-22T20:59:37.154Z,23.73
2022-08-22T21:02:14.611Z,23.65
2022-08-22T21:04:51.212Z,23.56
2022-08-22T21:10:23.693Z,23.42
2022-08-22T21:16:13.172Z,23.31
2022-08-22T21:24:08.757Z,23.09
2022-08-22T21:26:57.273Z,23.02
2022-08-22T21:32:04.505Z,22.89
2022-08-22T21:34:37.065Z,22.83
2022-08-22T21:39:41.824Z,22.68
2022-08-22T21:42:13.693Z,22.61
2022-08-22T21:44:43.403Z,22.59
2022-08-22T21:47:30.939Z,22.57
2022-08-22T21:50:18.642Z,22.53
2022-08-22T21:53:09.087Z,22.50
2022-08-22T21:58:38.778Z,22.35
2022-08-22T22:01:28.971Z,22.32
2022-08-22T22:03:58.034Z,22.30
2022-08-22T22:06:26.363Z,22.25
2022-08-22T22:08:55.461Z,22.19
2022-08-22T22:14:06.269Z,22.10
2022-08-22T22:16:37.069Z,22.04
2022-08-22T22:19:16.569Z,22.00
2022-08-22T22:24:26.375Z,21.97
2022-08-22T22:29:37.816Z,21.95
2022-08-22T22:32:05.990Z,21.95
2022-08-22T22:34:37.899Z,21.90
2022-08-22T22:37:08.202Z,21.86
2022-08-22T22:39:37.098Z,21.85
2022-08-22T22:42:05.768Z,21.86
2022-08-22T22:44:33.588Z,21.86
2022-08-22T22:47:04.311Z,21.87
2022-08-22T22:49:33.394Z,21.89
2022-08-22T22:52:14.506Z,21.86
2022-08-22T22:54:42.331Z,21.87
2022-08-22T22:57:12.784Z,21.88
2022-08-22T22:59:41.300Z,21.86
2022-08-22T23:02:12.402Z,21.83
2022-08-22T23:04:43.021Z,21.81
2022-08-22T23:07:13.549Z,21.75
2022-08-22T23:09:44.860Z,21.71
2022-08-22T23:12:13.405Z,21.66
2022-08-22T23:14:41.562Z,21.63
2022-08-22T23:17:11.103Z,21.62
2022-08-22T23:19:39.220Z,21.60
2022-08-22T23:22:10.370Z,21.64
2022-08-22T23:27:22.701Z,21.70
2022-08-22T23:29:50.439Z,21.70
2022-08-22T23:32:20.017Z,21.68
2022-08-22T23:34:48.838Z,21.67
2022-08-22T23:37:19.888Z,21.64
2022-08-22T23:39:48.357Z,21.63
2022-08-22T23:42:18.021Z,21.64
2022-08-22T23:44:46.593Z,21.66
2022-08-22T23:47:15.920Z,21.64
2022-08-22T23:49:50.542Z,21.63
2022-08-22T23:52:18.632Z,21.63
2022-08-22T23:54:46.485Z,21.60
2022-08-22T23:57:14.850Z,21.54
2022-08-22T23:59:46.384Z,21.49
